首页
METAR-TAF:

METAR-TAF

机场 :

索菲亞機場

索菲亞, 保加利亚

纬度: 42-39N, 经度: 023-23E, 海拔: 586米

当前天气观测

该预报发布于33分钟前的16:00 UTC
风速3节,风向东转东南,在之间变化
温度 11°C
湿度 87%
气压 1017 hPa
能見度: 6000
少量云层高于1700英尺
散云层高于2200英尺
阴天层高于5300英尺
小雨

METAR: LBSF 201600Z 12003KT 090V180 6000 -RA FEW017 SCT022 OVC053 11/09 Q1017 NOSIG

时间: 18:33 (16:33 UTC)

预报

该预报发布于5小时和33分钟前的11:00 UTC
预报有效从20日的 12点(UTC)到 21日的 12点(UTC)
风速10节,风向东南
能见度10公里或以上
散云层高于1500英尺
多云层高于2000英尺
短暂存在
从 20日的 12点(UTC)到 20日的 22点(UTC)
能見度: 4000
散云层高于1000英尺
多云层高于1500英尺
成为
从 20日的 14点(UTC)到 20日的 16点(UTC)
风速12节,风向西转西北
成为
从 20日的 18点(UTC)到 20日的 20点(UTC)
风速4节,风向多变
短暂存在
从 21日的 00点(UTC)到 21日的 09点(UTC)
能見度: 3000
散云层高于700英尺
多云层高于1200英尺
毛毛雨, 轻雾
几率 30%
从 21日的 01点(UTC)到 21日的 06点(UTC)
能見度: 0800
多云层高于200英尺
碎片雾

TAF: LBSF 201100Z 2012/2112 14010KT 9999 SCT015 BKN020 TEMPO 2012/2022 4000 RA SCT010 BKN015 BECMG 2014/2016 30012KT BECMG 2018/2020 VRB04KT TEMPO 2100/2109 3000 DZ BR SCT007 BKN012 PROB30 2101/2106 0800 BCFG BKN002

超过4000个机场的气象观测和天气预报(METAR&TAF报告)。

可查询的气象台以黄色和红色小点在地图上表示。

将鼠标移到小点上方,可查看气象台名称。

然后点击查看天气观测和预报。

如需切换地图:点击带黑十字的绿色按钮放大地图;点击带横线的绿色按钮缩小地图;或者点击绿色箭头查看邻近地区的地图。


METAR-TAF: